Time;durP1;ratioP1;P1;durP2;ratioP2;P2;SDS_P1;SDS_P2;PMS_P1;PMS_P2;Temp;Humidity;BMP_temperature;BMP_pressure;BME280_temperature;BME280_humidity;BME280_pressure;Samples;Min_cycle;Max_cycle;Signal;HPM_P1;HPM_P2
2022/11/03 00:01:44;;;;;;;10.73;9.93;;;;;;;14.15;46.21;93359.91;5065681;28;20193;-68
2022/11/03 00:04:12;;;;;;;9.73;9.03;;;;;;;14.31;45.92;93363.16;5069894;28;20279;-67
2022/11/03 00:06:39;;;;;;;9.57;8.70;;;;;;;14.32;46.54;93362.06;5069072;28;20178;-67
2022/11/03 00:09:07;;;;;;;10.13;7.73;;;;;;;14.26;47.39;93365.84;5068698;28;20228;-67
2022/11/03 00:11:34;;;;;;;10.13;8.97;;;;;;;14.14;47.89;93371.47;5069498;28;20186;-67
2022/11/03 00:14:00;;;;;;;9.17;8.47;;;;;;;14.07;49.27;93370.25;5069810;28;20268;-68
2022/11/03 00:16:26;;;;;;;10.00;9.30;;;;;;;13.92;50.04;93367.78;5069138;28;20185;-67
2022/11/03 00:18:51;;;;;;;10.53;9.63;;;;;;;13.75;50.25;93364.84;5066343;28;20221;-67
2022/11/03 00:21:17;;;;;;;10.80;9.77;;;;;;;13.73;49.89;93380.06;5068420;28;20199;-67
2022/11/03 00:23:43;;;;;;;8.87;8.10;;;;;;;13.71;50.11;93382.97;5069157;28;20229;-67
2022/11/03 00:26:15;;;;;;;12.13;9.03;;;;;;;13.78;50.41;93380.81;5069131;28;20189;-67
2022/11/03 00:28:42;;;;;;;9.77;8.87;;;;;;;13.70;51.23;93378.00;5067780;28;20232;-67
2022/11/03 00:31:15;;;;;;;9.17;8.47;;;;;;;13.70;51.18;93373.53;5068783;28;20897;-67
2022/11/03 00:33:41;;;;;;;10.03;9.13;;;;;;;13.75;50.07;93372.69;5066887;28;20233;-68
2022/11/03 00:36:09;;;;;;;9.50;8.53;;;;;;;13.82;50.05;93368.69;5068732;28;20216;-66
2022/11/03 00:38:36;;;;;;;9.67;8.73;;;;;;;13.80;51.58;93368.19;5069117;28;20233;-66
2022/11/03 00:41:03;;;;;;;9.17;8.33;;;;;;;13.70;52.65;93367.50;5068228;28;20181;-68
2022/11/03 00:43:30;;;;;;;9.50;8.73;;;;;;;13.63;53.17;93374.94;5068838;28;20247;-68
2022/11/03 00:45:58;;;;;;;9.63;8.80;;;;;;;13.70;52.71;93372.75;5087134;28;21394;-66
2022/11/03 00:48:29;;;;;;;9.13;8.33;;;;;;;13.68;51.26;93375.66;5081676;28;20248;-67
2022/11/03 00:51:13;;;;;;;9.30;8.40;;;;;;;13.72;50.42;93371.44;5067317;28;20204;-67
2022/11/03 00:53:41;;;;;;;9.83;9.17;;;;;;;13.86;50.13;93369.69;5068341;28;20239;-67
2022/11/03 00:56:10;;;;;;;8.70;7.93;;;;;;;13.93;49.81;93377.25;5069558;28;20201;-67
2022/11/03 00:58:35;;;;;;;9.87;8.77;;;;;;;14.03;49.51;93377.13;5068379;28;20244;-67
2022/11/03 01:01:10;;;;;;;10.23;9.23;;;;;;;14.07;49.01;93373.66;5069237;28;20193;-67
2022/11/03 01:03:38;;;;;;;9.90;8.90;;;;;;;14.17;49.36;93378.78;5067812;28;20237;-67
2022/11/03 01:08:53;;;;;;;9.97;9.17;;;;;;;14.14;49.07;93378.56;5068187;28;20274;-66
2022/11/03 01:14:06;;;;;;;9.00;8.50;;;;;;;14.24;49.29;93373.22;5068450;28;20228;-67
2022/11/03 01:16:31;;;;;;;10.27;9.23;;;;;;;14.18;49.52;93375.09;5069116;28;20188;-66
2022/11/03 01:18:57;;;;;;;11.50;10.27;;;;;;;14.09;50.80;93378.63;5069072;28;20221;-68
2022/11/03 01:21:23;;;;;;;9.47;8.53;;;;;;;14.00;52.18;93388.97;5067318;28;20186;-68
2022/11/03 01:23:49;;;;;;;9.90;9.20;;;;;;;13.94;52.74;93361.22;5068177;28;20281;-67
2022/11/03 01:26:14;;;;;;;9.23;8.47;;;;;;;13.96;53.04;93369.56;5068899;28;20194;-67
2022/11/03 01:28:42;;;;;;;10.37;9.33;;;;;;;13.91;52.29;93374.91;5068490;28;20229;-68
2022/11/03 01:31:11;;;;;;;10.17;8.93;;;;;;;14.00;52.25;93382.94;5069097;28;20200;-67
2022/11/03 01:33:38;;;;;;;10.27;9.60;;;;;;;13.99;52.75;93370.88;5067713;28;20226;-66
2022/11/03 01:36:03;;;;;;;10.23;9.43;;;;;;;13.97;53.55;93371.16;5067432;28;20189;-67
2022/11/03 01:38:33;;;;;;;9.63;8.83;;;;;;;13.91;51.90;93374.91;5067935;28;20292;-66
2022/11/03 01:41:00;;;;;;;9.77;8.87;;;;;;;13.90;53.46;93373.31;5068950;28;20212;-66
2022/11/03 01:43:30;;;;;;;9.97;8.97;;;;;;;14.00;52.57;93375.84;5066283;28;20237;-68
2022/11/03 01:46:05;;;;;;;10.40;9.60;;;;;;;13.95;53.25;93372.47;5067354;28;20189;-67
2022/11/03 01:48:33;;;;;;;11.50;8.80;;;;;;;13.99;53.08;93376.13;5076228;28;20219;-67
2022/11/03 01:51:00;;;;;;;11.33;10.17;;;;;;;14.00;53.42;93378.47;5092184;28;20816;-67
2022/11/03 01:53:28;;;;;;;10.00;9.03;;;;;;;13.89;53.81;93363.91;5083927;28;20272;-67
2022/11/03 01:55:54;;;;;;;12.13;9.70;;;;;;;13.91;54.83;93379.38;5071823;28;20177;-67
2022/11/03 01:58:24;;;;;;;9.20;8.70;;;;;;;13.90;55.10;93383.81;5069695;28;20229;-67
2022/11/03 02:00:53;;;;;;;12.20;9.80;;;;;;;13.83;56.01;93382.59;5071618;28;20204;-67
2022/11/03 02:03:19;;;;;;;11.30;10.27;;;;;;;13.94;54.83;93379.59;5070283;28;20233;-67
2022/11/03 02:05:46;;;;;;;12.33;10.27;;;;;;;13.81;55.34;93390.75;5071070;28;20178;-67
2022/11/03 02:08:21;;;;;;;11.80;9.67;;;;;;;13.89;55.54;93386.72;5071718;28;20236;-67
2022/11/03 02:10:49;;;;;;;13.00;9.77;;;;;;;13.88;55.67;93385.94;5071912;28;20177;-67
2022/11/03 02:13:25;;;;;;;10.10;9.30;;;;;;;13.74;56.10;93389.53;5071700;28;20240;-67
2022/11/03 02:15:58;;;;;;;10.90;10.00;;;;;;;13.63;56.01;93383.59;5071175;28;20244;-67
2022/11/03 02:18:28;;;;;;;11.00;10.00;;;;;;;13.66;56.04;93393.53;5070311;28;20247;-67
2022/11/03 02:21:07;;;;;;;11.33;10.20;;;;;;;13.74;56.23;93390.28;5071174;28;20272;-66
2022/11/03 02:24:10;;;;;;;15.20;9.13;;;;;;;13.75;55.82;93386.63;5071009;28;20267;-67
2022/11/03 02:26:35;;;;;;;11.17;10.13;;;;;;;13.74;55.84;93379.78;5070144;28;20204;-67
2022/11/03 02:29:01;;;;;;;10.80;9.87;;;;;;;13.63;56.22;93367.84;5070027;28;20217;-68
2022/11/03 02:31:37;;;;;;;15.87;10.23;;;;;;;13.76;56.50;93377.69;5071548;28;20215;-67
2022/11/03 02:34:05;;;;;;;11.67;10.57;;;;;;;13.88;56.70;93375.44;5071132;28;20229;-67
2022/11/03 02:36:38;;;;;;;11.07;10.03;;;;;;;13.84;56.80;93373.66;5069561;28;20194;-67
2022/11/03 02:39:10;;;;;;;12.20;9.77;;;;;;;13.69;57.31;93361.50;5070926;28;20229;-66
2022/11/03 02:41:38;;;;;;;10.83;9.80;;;;;;;13.83;57.42;93372.88;5070248;28;20197;-67
2022/11/03 02:44:07;;;;;;;11.03;9.87;;;;;;;13.79;58.22;93377.13;5071083;28;20237;-67
2022/11/03 02:46:34;;;;;;;10.80;9.83;;;;;;;13.69;58.71;93365.94;5072905;28;20244;-67
2022/11/03 02:48:59;;;;;;;10.70;9.60;;;;;;;13.62;60.06;93382.00;5068383;28;20248;-67
2022/11/03 02:51:25;;;;;;;11.57;10.47;;;;;;;13.45;60.40;93370.41;5071218;28;20215;-67
2022/11/03 02:54:09;;;;;;;11.63;10.63;;;;;;;13.45;60.76;93381.66;5066226;28;20239;-67
2022/11/03 02:56:42;;;;;;;10.33;9.43;;;;;;;13.33;61.34;93373.38;5061443;28;20829;-68
2022/11/03 02:59:13;;;;;;;10.77;9.73;;;;;;;13.26;62.13;93378.16;5067435;28;20715;-67
2022/11/03 03:01:47;;;;;;;11.50;10.30;;;;;;;13.24;61.83;93369.81;5070954;28;20185;-67
2022/11/03 03:04:29;;;;;;;10.57;9.87;;;;;;;13.35;61.72;93373.91;5069055;28;20316;-67
2022/11/03 03:07:08;;;;;;;11.27;10.40;;;;;;;13.36;61.45;93378.06;5069320;28;20193;-67
2022/11/03 03:09:45;;;;;;;10.57;9.77;;;;;;;13.39;61.00;93371.50;5070005;28;20253;-66
2022/11/03 03:12:14;;;;;;;10.53;9.73;;;;;;;13.42;60.83;93378.81;5070323;28;20192;-66
2022/11/03 03:14:43;;;;;;;11.10;9.97;;;;;;;13.56;61.00;93377.09;5069986;28;20252;-68
2022/11/03 03:17:40;;;;;;;12.17;9.40;;;;;;;13.62;61.28;93378.63;5070644;28;20178;-67
2022/11/03 03:20:06;;;;;;;13.93;10.20;;;;;;;13.61;60.56;93380.47;5069036;28;20264;-68
2022/11/03 03:22:46;;;;;;;11.50;10.30;;;;;;;13.63;60.50;93362.59;5070800;28;20190;-67
2022/11/03 03:25:22;;;;;;;11.27;9.67;;;;;;;13.70;60.92;93378.78;5069314;28;20261;-67
2022/11/03 03:27:52;;;;;;;11.10;10.17;;;;;;;13.63;61.54;93373.09;5070149;28;20215;-67
2022/11/03 03:30:18;;;;;;;10.90;9.80;;;;;;;13.64;62.39;93371.25;5068516;28;20205;-68
2022/11/03 03:32:48;;;;;;;14.37;10.27;;;;;;;13.60;62.82;93368.41;5069515;28;20197;-67
2022/11/03 03:35:23;;;;;;;11.53;9.80;;;;;;;13.55;62.91;93373.72;5069090;28;20208;-67
2022/11/03 03:37:52;;;;;;;11.13;10.13;;;;;;;13.54;63.02;93373.97;5070937;28;20199;-67
2022/11/03 03:40:27;;;;;;;11.13;10.00;;;;;;;13.51;63.37;93369.28;5091191;28;20200;-67
2022/11/03 03:42:53;;;;;;;12.10;9.97;;;;;;;13.45;63.71;93378.28;5086817;28;20322;-67
2022/11/03 03:45:19;;;;;;;11.80;10.80;;;;;;;13.42;63.83;93371.72;5069864;28;20193;-68
2022/11/03 03:47:45;;;;;;;11.33;10.43;;;;;;;13.30;64.08;93362.66;5067715;28;20239;-67
2022/11/03 03:50:11;;;;;;;10.53;9.83;;;;;;;13.32;63.46;93374.44;5068905;28;20204;-68
2022/11/03 03:52:37;;;;;;;14.13;9.90;;;;;;;13.23;63.56;93357.72;5069083;28;20225;-67
2022/11/03 03:55:03;;;;;;;11.37;10.37;;;;;;;13.33;64.03;93378.63;5068908;28;20221;-67
2022/11/03 03:57:30;;;;;;;11.50;10.33;;;;;;;13.20;64.43;93375.88;5068691;28;20193;-67
2022/11/03 03:59:55;;;;;;;10.77;9.83;;;;;;;13.15;64.31;93374.06;5068765;28;20233;-67
2022/11/03 04:02:21;;;;;;;11.27;10.27;;;;;;;13.12;63.21;93374.59;5069583;28;20185;-68
2022/11/03 04:04:46;;;;;;;10.93;9.57;;;;;;;13.04;63.80;93364.72;5068231;28;20235;-64
2022/11/03 04:09:55;;;;;;;12.07;10.87;;;;;;;12.96;64.83;93375.78;5068141;28;20290;-64
2022/11/03 04:23:18;;;;;;;13.93;10.43;;;;;;;12.41;67.16;93371.66;5067618;28;20227;-65
2022/11/03 04:25:49;;;;;;;13.03;11.87;;;;;;;12.40;67.61;93385.81;5071161;28;20217;-65
2022/11/03 04:28:15;;;;;;;11.37;10.37;;;;;;;12.20;68.38;93379.91;5068908;28;20232;-64
2022/11/03 04:30:41;;;;;;;11.03;9.93;;;;;;;11.97;69.52;93375.28;5068502;28;20197;-66
2022/11/03 04:33:18;;;;;;;11.20;10.23;;;;;;;12.01;69.45;93371.88;5068872;28;20245;-65
2022/11/03 04:35:45;;;;;;;11.57;10.30;;;;;;;11.98;69.16;93372.41;5069223;28;20188;-65
2022/11/03 04:38:13;;;;;;;11.40;10.53;;;;;;;11.90;69.11;93369.56;5068723;28;20248;-65
2022/11/03 04:40:46;;;;;;;12.27;11.10;;;;;;;11.82;69.18;93365.66;5068723;28;20188;-65
2022/11/03 04:43:13;;;;;;;12.93;11.63;;;;;;;11.80;69.70;93374.84;5062692;28;20237;-65
2022/11/03 04:45:41;;;;;;;12.47;11.10;;;;;;;11.78;69.51;93371.69;5065621;28;20189;-64
2022/11/03 04:48:12;;;;;;;12.13;10.83;;;;;;;11.71;69.48;93371.19;5067334;28;20217;-65
2022/11/03 04:50:38;;;;;;;13.20;10.73;;;;;;;11.61;69.67;93381.66;5067618;28;20194;-67
2022/11/03 04:53:08;;;;;;;11.00;10.13;;;;;;;11.63;69.76;93369.91;5066698;28;20217;-67
2022/11/03 04:55:34;;;;;;;12.03;10.83;;;;;;;11.52;69.50;93341.41;5065025;28;20663;-67
2022/11/03 04:58:05;;;;;;;10.50;9.63;;;;;;;11.53;70.17;93367.28;5067374;28;20202;-69
2022/11/03 05:00:30;;;;;;;12.17;10.70;;;;;;;11.50;69.58;93362.59;5066495;28;20184;-69
2022/11/03 05:02:56;;;;;;;11.03;10.20;;;;;;;11.54;69.60;93362.81;5066975;28;20225;-69
2022/11/03 05:05:24;;;;;;;11.27;10.27;;;;;;;11.52;69.08;93373.56;5084986;28;20188;-68
2022/11/03 05:07:52;;;;;;;11.47;10.47;;;;;;;11.39;70.33;93380.09;5082369;28;20235;-67
2022/11/03 05:10:24;;;;;;;10.20;9.30;;;;;;;11.55;69.97;93377.47;5064340;28;20187;-67
2022/11/03 05:12:50;;;;;;;17.83;10.77;;;;;;;11.41;70.65;93382.47;5068116;28;20718;-68
2022/11/03 05:15:36;;;;;;;11.07;10.07;;;;;;;11.32;71.06;93390.06;5067271;28;20188;-69
2022/11/03 05:18:14;;;;;;;12.30;10.97;;;;;;;11.33;70.85;93389.00;5067050;28;20243;-67
2022/11/03 05:20:46;;;;;;;11.83;10.50;;;;;;;11.54;70.14;93391.59;5087983;28;20785;-66
2022/11/03 05:23:13;;;;;;;13.13;11.57;;;;;;;11.53;69.48;93390.81;5082833;28;20225;-67
2022/11/03 05:25:42;;;;;;;13.47;12.13;;;;;;;11.57;70.15;93393.66;5067393;28;20182;-67
2022/11/03 05:28:19;;;;;;;16.47;11.90;;;;;;;11.60;70.66;93390.53;5068908;28;20233;-67
2022/11/03 05:30:45;;;;;;;13.40;12.20;;;;;;;11.57;70.70;93391.06;5071613;28;20185;-70
2022/11/03 05:33:31;;;;;;;13.97;11.40;;;;;;;11.64;71.48;93394.22;5069760;28;20221;-69
2022/11/03 05:36:06;;;;;;;13.97;12.53;;;;;;;11.79;70.71;93402.03;5071543;28;20214;-70
2022/11/03 05:38:32;;;;;;;12.53;11.23;;;;;;;11.71;70.89;93394.72;5070431;28;20221;-68
2022/11/03 05:40:58;;;;;;;15.40;11.80;;;;;;;11.63;71.01;93396.03;5070319;28;20201;-68
2022/11/03 05:43:25;;;;;;;13.57;12.30;;;;;;;11.74;71.33;93410.69;5069316;28;20230;-69
2022/11/03 05:45:54;;;;;;;13.50;12.17;;;;;;;11.96;70.89;93413.75;5069763;28;20208;-69
2022/11/03 05:48:38;;;;;;;15.20;12.23;;;;;;;12.00;70.43;93411.41;5070527;28;20247;-69
2022/11/03 05:51:24;;;;;;;13.27;11.73;;;;;;;12.07;70.86;93417.13;5070147;28;20205;-69
2022/11/03 05:53:55;;;;;;;13.90;12.43;;;;;;;12.03;71.26;93419.47;5068700;28;20233;-67
2022/11/03 05:56:23;;;;;;;13.57;12.43;;;;;;;12.13;71.49;93429.13;5069850;28;20240;-67
2022/11/03 05:58:52;;;;;;;17.17;12.23;;;;;;;12.23;71.33;93423.88;5069087;28;20236;-67
2022/11/03 06:01:33;;;;;;;19.47;12.37;;;;;;;12.38;70.52;93429.03;5070302;28;20188;-68
2022/11/03 06:04:39;;;;;;;17.63;12.50;;;;;;;12.43;70.40;93431.63;5069859;28;20228;-67
2022/11/03 06:07:22;;;;;;;18.97;13.77;;;;;;;12.58;70.63;93431.53;5069645;28;20177;-68
2022/11/03 06:09:47;;;;;;;14.40;12.93;;;;;;;12.74;70.27;93425.19;5067983;28;20232;-67
2022/11/03 06:12:17;;;;;;;16.73;12.30;;;;;;;12.89;70.12;93435.56;5069327;28;20201;-67
2022/11/03 06:14:43;;;;;;;16.67;11.80;;;;;;;12.86;69.88;93430.88;5069053;28;20236;-68
2022/11/03 06:17:21;;;;;;;14.57;12.47;;;;;;;13.06;69.42;93441.25;5069483;28;20193;-67
2022/11/03 06:19:47;;;;;;;15.53;12.83;;;;;;;13.16;69.22;93446.44;5069498;28;20220;-67
2022/11/03 06:22:28;;;;;;;15.17;13.10;;;;;;;13.30;68.46;93452.63;5067913;28;20186;-67
2022/11/03 06:25:12;;;;;;;14.80;12.43;;;;;;;13.55;65.91;93455.03;5066203;28;20232;-68
2022/11/03 06:27:38;;;;;;;16.30;12.87;;;;;;;13.61;66.28;93459.19;5067384;28;20197;-67
2022/11/03 06:30:25;;;;;;;16.00;12.43;;;;;;;13.82;65.13;93462.41;5068821;28;20217;-67
2022/11/03 06:32:52;;;;;;;18.90;12.83;;;;;;;13.96;65.17;93466.72;5070025;28;20220;-68
2022/11/03 06:35:17;;;;;;;16.30;13.67;;;;;;;14.05;64.66;93464.28;5069961;28;21328;-67
2022/11/03 06:37:43;;;;;;;15.60;13.13;;;;;;;14.11;64.33;93450.81;5068498;28;20243;-71
2022/11/03 06:40:09;;;;;;;19.03;13.93;;;;;;;14.34;64.11;93473.72;5069353;28;20197;-66
2022/11/03 06:42:35;;;;;;;18.93;14.77;;;;;;;14.16;64.23;93471.00;5064616;28;20221;-66
2022/11/03 06:45:09;;;;;;;20.57;13.93;;;;;;;14.08;65.15;93472.38;5067778;28;20225;-66
2022/11/03 06:47:35;;;;;;;15.40;12.97;;;;;;;14.45;65.62;93483.03;5069341;28;20185;-65
2022/11/03 06:50:00;;;;;;;19.87;14.33;;;;;;;14.78;68.29;93473.44;5069739;28;20284;-66
2022/11/03 06:52:34;;;;;;;21.20;14.23;;;;;;;15.04;64.96;93460.72;5068151;28;20196;-70
2022/11/03 06:55:08;;;;;;;18.43;15.80;;;;;;;15.17;63.38;93465.28;5068318;28;20800;-67
2022/11/03 06:57:37;;;;;;;18.80;14.83;;;;;;;15.13;64.09;93466.94;5069217;28;20200;-66
2022/11/03 07:00:29;;;;;;;15.53;13.90;;;;;;;15.34;60.88;93468.97;5069336;28;20229;-67
2022/11/03 07:03:29;;;;;;;18.53;13.87;;;;;;;15.12;62.33;93473.22;5065587;28;20904;-68
2022/11/03 07:05:57;;;;;;;22.23;15.57;;;;;;;15.12;61.59;93463.50;5067864;28;20202;-67
2022/11/03 07:08:28;;;;;;;15.63;13.10;;;;;;;15.20;60.74;93459.44;5068551;28;20221;-66
2022/11/03 07:11:03;;;;;;;18.73;15.23;;;;;;;14.97;60.47;93423.50;5065026;28;20189;-66
2022/11/03 07:13:32;;;;;;;16.80;15.07;;;;;;;15.20;60.57;93454.19;5066132;28;20216;-66
2022/11/03 07:15:57;;;;;;;20.80;14.63;;;;;;;15.18;61.38;93457.09;5067297;28;20193;-69
2022/11/03 07:18:28;;;;;;;19.23;15.17;;;;;;;15.22;61.68;93457.31;5061437;28;21671;-67
2022/11/03 07:20:54;;;;;;;18.80;14.30;;;;;;;15.36;61.33;93460.78;5067796;28;20223;-67
2022/11/03 07:23:29;;;;;;;18.70;14.17;;;;;;;15.62;59.77;93451.44;5064861;28;20309;-66
2022/11/03 07:25:59;;;;;;;20.57;15.37;;;;;;;15.46;60.72;93455.38;5066547;28;20868;-69
2022/11/03 07:28:33;;;;;;;18.07;14.50;;;;;;;15.44;59.95;93444.38;5066522;28;20233;-67
2022/11/03 07:31:01;;;;;;;20.00;15.03;;;;;;;15.65;60.12;93456.13;5068009;28;20201;-68
2022/11/03 07:33:29;;;;;;;22.40;16.20;;;;;;;15.61;60.05;93455.91;5067104;28;20294;-67
2022/11/03 07:35:56;;;;;;;19.73;15.53;;;;;;;15.74;59.36;93457.03;5069261;28;20232;-68
2022/11/03 07:38:25;;;;;;;18.00;15.07;;;;;;;15.90;58.83;93458.34;5073411;28;20224;-67
2022/11/03 07:40:52;;;;;;;16.83;14.73;;;;;;;15.61;60.24;93461.19;5087745;28;20173;-66
2022/11/03 07:43:21;;;;;;;20.73;15.63;;;;;;;15.59;59.81;93462.56;5082422;28;20237;-68
2022/11/03 07:45:46;;;;;;;21.67;15.37;;;;;;;16.00;58.35;93460.78;5067380;28;20181;-69
2022/11/03 07:48:27;;;;;;;21.67;15.03;;;;;;;15.68;58.91;93448.44;5067122;28;20292;-68
2022/11/03 07:50:55;;;;;;;23.17;15.73;;;;;;;15.26;60.42;93458.28;5065938;28;20224;-68
2022/11/03 07:53:20;;;;;;;27.73;15.47;;;;;;;15.47;60.44;93456.97;5066760;28;20244;-68
2022/11/03 07:55:47;;;;;;;21.23;15.63;;;;;;;15.58;59.17;93451.25;5066918;28;20185;-69
2022/11/03 07:58:42;;;;;;;19.73;15.20;;;;;;;15.25;60.70;93448.84;5066602;28;20226;-68
2022/11/03 08:01:21;;;;;;;20.03;14.87;;;;;;;15.21;59.61;93413.66;5068188;28;20197;-68
2022/11/03 08:03:47;;;;;;;19.10;15.20;;;;;;;15.78;58.71;93456.16;5075971;28;20223;-69
2022/11/03 08:06:12;;;;;;;19.60;15.23;;;;;;;15.85;58.40;93440.78;5088058;28;20208;-69
2022/11/03 08:08:38;;;;;;;18.40;15.47;;;;;;;15.46;59.46;93442.22;5078481;28;20231;-68
2022/11/03 08:11:04;;;;;;;20.30;14.97;;;;;;;15.71;58.96;93432.06;5067916;28;20201;-70
2022/11/03 08:13:30;;;;;;;20.97;14.13;;;;;;;15.95;58.28;93434.56;5065366;28;20225;-69
2022/11/03 08:15:56;;;;;;;17.83;14.57;;;;;;;15.75;59.26;93419.13;5068058;28;20192;-70
2022/11/03 08:18:21;;;;;;;19.47;15.30;;;;;;;15.80;58.49;93424.28;5067540;28;20224;-69
2022/11/03 08:20:47;;;;;;;19.67;14.27;;;;;;;16.14;57.31;93429.97;5066855;28;20189;-70
2022/11/03 08:23:12;;;;;;;19.67;14.10;;;;;;;16.16;57.11;93425.19;5066874;28;20217;-68
2022/11/03 08:25:37;;;;;;;20.93;14.60;;;;;;;16.44;55.78;93432.06;5067248;28;21001;-69
2022/11/03 08:28:03;;;;;;;20.17;15.13;;;;;;;16.18;56.42;93425.69;5067226;28;20941;-68
2022/11/03 08:30:29;;;;;;;18.60;15.63;;;;;;;16.27;55.97;93425.78;5067529;28;20249;-69
2022/11/03 08:32:54;;;;;;;21.00;14.37;;;;;;;16.33;56.68;93435.94;5066484;28;20193;-69
2022/11/03 08:35:20;;;;;;;29.87;18.23;;;;;;;15.96;57.48;93412.41;5068156;28;20272;-68
2022/11/03 08:37:45;;;;;;;25.60;16.50;;;;;;;16.25;56.72;93423.44;5066821;28;20199;-71
2022/11/03 08:40:11;;;;;;;20.83;15.63;;;;;;;16.47;56.25;93425.44;5067675;28;20189;-70
2022/11/03 08:42:36;;;;;;;20.77;15.57;;;;;;;16.32;57.02;93421.22;5067053;28;20205;-70
2022/11/03 08:45:02;;;;;;;22.77;15.27;;;;;;;16.35;58.06;93422.47;5066497;28;20271;-70
2022/11/03 08:47:27;;;;;;;33.20;17.97;;;;;;;16.65;56.70;93420.03;5066550;28;20211;-70
2022/11/03 08:49:52;;;;;;;26.73;17.03;;;;;;;16.95;54.94;93427.28;5061619;28;20217;-70
2022/11/03 08:52:18;;;;;;;38.40;21.10;;;;;;;17.01;54.96;93431.38;5066929;28;20213;-70
2022/11/03 08:54:44;;;;;;;21.67;17.30;;;;;;;16.97;54.62;93425.16;5063720;28;20220;-69
2022/11/03 08:57:09;;;;;;;22.90;15.37;;;;;;;17.11;54.16;93431.16;5063338;28;20221;-72
2022/11/03 08:59:34;;;;;;;23.23;15.47;;;;;;;16.73;55.16;93418.56;5065867;28;20215;-71
2022/11/03 09:02:00;;;;;;;19.93;15.33;;;;;;;16.41;55.70;93385.19;5065577;28;20205;-70
2022/11/03 09:04:25;;;;;;;28.60;15.43;;;;;;;16.92;54.76;93430.53;5065423;28;20221;-69
2022/11/03 09:06:50;;;;;;;20.10;14.80;;;;;;;16.99;54.49;93435.41;5066880;28;20189;-70
2022/11/03 09:09:16;;;;;;;22.23;15.77;;;;;;;17.25;54.07;93429.25;5066399;28;20217;-69
2022/11/03 09:11:41;;;;;;;20.53;18.13;;;;;;;16.98;55.47;93425.94;5064863;28;20192;-69
2022/11/03 09:14:06;;;;;;;18.77;14.87;;;;;;;16.92;55.11;93419.19;5067372;28;20225;-70
2022/11/03 09:16:32;;;;;;;28.67;17.33;;;;;;;16.73;56.33;93419.31;5067262;28;20198;-69
2022/11/03 09:18:57;;;;;;;21.13;14.63;;;;;;;16.67;56.26;93412.59;5065402;28;21719;-70
2022/11/03 09:21:22;;;;;;;19.93;15.20;;;;;;;16.72;56.14;93412.50;5065213;28;20228;-69
2022/11/03 09:23:48;;;;;;;20.73;15.07;;;;;;;16.61;56.22;93405.88;5066694;28;20239;-70
2022/11/03 09:26:13;;;;;;;18.40;15.17;;;;;;;16.88;55.70;93408.47;5066784;28;20201;-70
2022/11/03 09:28:38;;;;;;;37.80;18.53;;;;;;;17.42;54.05;93397.72;5065605;28;20318;-70
2022/11/03 09:31:04;;;;;;;37.17;19.27;;;;;;;17.28;54.27;93399.63;5066091;28;20213;-69
2022/11/03 09:33:30;;;;;;;36.13;19.37;;;;;;;17.26;54.72;93403.66;5066684;28;20267;-70
2022/11/03 09:35:55;;;;;;;25.97;17.30;;;;;;;17.29;54.55;93403.81;5067420;28;20257;-71
2022/11/03 09:38:20;;;;;;;24.30;15.33;;;;;;;17.20;55.17;93402.19;5066990;28;20260;-71
2022/11/03 09:40:46;;;;;;;32.97;16.23;;;;;;;17.22;55.57;93392.91;5066652;28;20185;-70
2022/11/03 09:43:11;;;;;;;20.80;15.80;;;;;;;16.99;55.04;93374.72;5064926;28;20264;-70
2022/11/03 09:45:37;;;;;;;26.30;15.43;;;;;;;17.12;55.33;93387.84;5067047;28;20190;-70
2022/11/03 09:48:03;;;;;;;28.37;14.93;;;;;;;17.59;53.73;93384.66;5065725;28;20240;-70
2022/11/03 09:50:30;;;;;;;21.90;15.80;;;;;;;17.30;54.20;93386.94;5066790;28;20304;-70
2022/11/03 09:52:56;;;;;;;21.80;15.27;;;;;;;17.23;54.55;93360.16;5065394;28;20312;-69
2022/11/03 09:55:26;;;;;;;17.67;15.00;;;;;;;17.08;54.07;93373.72;5066455;28;20170;-68
2022/11/03 09:57:59;;;;;;;17.03;13.77;;;;;;;17.39;53.38;93377.19;5063963;28;20185;-67
2022/11/03 10:00:26;;;;;;;23.23;14.53;;;;;;;17.63;52.88;93368.97;5061342;28;20193;-65
2022/11/03 10:02:52;;;;;;;22.80;14.73;;;;;;;17.89;52.97;93371.72;5063387;28;20248;-65
2022/11/03 10:05:23;;;;;;;27.50;16.80;;;;;;;17.94;52.89;93372.41;5065403;28;20189;-66
2022/11/03 10:07:50;;;;;;;18.43;14.77;;;;;;;18.07;52.13;93365.47;5067436;28;20181;-67
2022/11/03 10:10:19;;;;;;;31.30;14.83;;;;;;;17.86;52.44;93367.84;5069943;28;20185;-68
2022/11/03 10:12:46;;;;;;;23.80;16.10;;;;;;;17.65;53.45;93366.03;5068943;28;20185;-68
2022/11/03 10:15:16;;;;;;;24.33;15.40;;;;;;;17.70;53.58;93358.00;5069286;28;20209;-68
2022/11/03 10:17:43;;;;;;;18.73;14.00;;;;;;;18.10;50.35;93352.38;5068335;28;20189;-71
2022/11/03 10:20:11;;;;;;;22.40;15.13;;;;;;;18.02;50.87;93341.81;5068318;28;20217;-68
2022/11/03 10:22:37;;;;;;;26.30;14.60;;;;;;;17.94;51.84;93332.75;5070253;28;20190;-69
2022/11/03 10:25:37;;;;;;;16.03;12.17;;;;;;;18.21;50.67;93339.69;5070216;28;20308;-68
2022/11/03 10:28:19;;;;;;;17.97;13.63;;;;;;;18.44;49.16;93338.53;5069507;28;20240;-68
2022/11/03 10:30:52;;;;;;;18.67;12.40;;;;;;;18.62;48.07;93337.44;5070130;28;20191;-69
2022/11/03 10:33:32;;;;;;;18.53;12.43;;;;;;;18.56;47.47;93328.13;5069114;28;20243;-69
2022/11/03 10:36:22;;;;;;;12.90;11.70;;;;;;;18.34;47.56;93326.34;5069031;28;20190;-68
2022/11/03 10:38:48;;;;;;;13.17;11.67;;;;;;;18.32;46.22;93327.75;5065683;28;20222;-69
2022/11/03 10:41:28;;;;;;;13.03;10.33;;;;;;;18.22;45.28;93309.53;5068313;28;20187;-68
2022/11/03 10:44:11;;;;;;;13.53;11.90;;;;;;;18.14;46.58;93315.56;5068952;28;20237;-68
2022/11/03 10:46:38;;;;;;;13.60;11.67;;;;;;;17.92;46.68;93315.63;5068467;28;20185;-68
2022/11/03 10:49:12;;;;;;;15.13;12.30;;;;;;;18.00;47.74;93304.31;5067063;28;20209;-69
2022/11/03 10:51:39;;;;;;;14.63;12.03;;;;;;;18.19;47.73;93299.56;5068180;28;20201;-68
2022/11/03 10:54:09;;;;;;;14.30;12.77;;;;;;;18.06;47.50;93303.09;5068575;28;20305;-69
2022/11/03 10:56:34;;;;;;;24.60;11.70;;;;;;;18.23;47.28;93293.34;5069752;28;20201;-68
2022/11/03 10:59:01;;;;;;;13.70;11.57;;;;;;;18.17;47.22;93291.16;5068687;28;20270;-70
2022/11/03 11:01:26;;;;;;;14.10;11.30;;;;;;;18.58;45.05;93288.91;5068759;28;20193;-69
2022/11/03 11:03:51;;;;;;;12.20;11.00;;;;;;;18.42;44.92;93285.16;5068492;28;20226;-69
2022/11/03 11:06:19;;;;;;;17.17;10.70;;;;;;;18.50;43.18;93268.53;5069203;28;20245;-69
2022/11/03 11:08:45;;;;;;;10.93;9.93;;;;;;;18.47;42.48;93277.09;5068652;28;20227;-69
2022/11/03 11:11:14;;;;;;;14.03;10.70;;;;;;;18.39;44.06;93272.56;5069827;28;20213;-71
2022/11/03 11:13:40;;;;;;;13.87;12.00;;;;;;;18.27;45.44;93265.19;5066111;28;20225;-68
2022/11/03 11:16:44;;;;;;;15.70;11.80;;;;;;;18.23;46.64;93258.19;5068856;28;20194;-68
2022/11/03 11:19:10;;;;;;;12.53;11.20;;;;;;;18.10;47.10;93241.38;5067985;28;20230;-68
2022/11/03 11:21:39;;;;;;;13.77;11.13;;;;;;;18.24;45.49;93254.50;5067834;28;20186;-69
2022/11/03 11:24:08;;;;;;;13.70;11.07;;;;;;;18.23;44.90;93239.69;5065367;28;20230;-69
2022/11/03 11:26:34;;;;;;;14.00;11.27;;;;;;;18.34;44.73;93243.59;5068326;28;20194;-69
2022/11/03 11:29:08;;;;;;;14.40;10.90;;;;;;;18.45;45.24;93247.53;5066453;28;20222;-69
2022/11/03 11:31:44;;;;;;;13.77;10.43;;;;;;;18.46;44.83;93241.16;5067476;28;20183;-69
2022/11/03 11:34:09;;;;;;;19.13;11.53;;;;;;;18.82;43.54;93254.81;5067794;28;20242;-69
2022/11/03 11:36:46;;;;;;;12.03;10.77;;;;;;;18.71;44.13;93246.44;5067755;28;20497;-68
2022/11/03 11:39:12;;;;;;;15.03;11.40;;;;;;;18.50;44.34;93242.09;5068192;28;20252;-69
2022/11/03 11:42:02;;;;;;;14.30;11.27;;;;;;;18.54;44.77;93240.38;5066538;28;20194;-70
2022/11/03 11:44:56;;;;;;;11.00;9.90;;;;;;;18.56;43.89;93231.03;5067113;28;20222;-69
2022/11/03 11:47:44;;;;;;;13.33;10.47;;;;;;;18.72;43.40;93231.34;5066635;28;20198;-72
2022/11/03 11:50:28;;;;;;;10.63;9.63;;;;;;;18.59;43.65;93229.63;5067398;28;20237;-69
2022/11/03 11:53:00;;;;;;;13.93;9.27;;;;;;;18.67;43.32;93228.84;5067631;28;20257;-69